createdAt,value
2022-11-02T00:00:35.017Z,16.00
2022-11-02T00:03:03.117Z,16.10
2022-11-02T00:05:31.143Z,16.00
2022-11-02T00:07:58.136Z,16.00
2022-11-02T00:10:25.492Z,16.00
2022-11-02T00:12:52.813Z,16.00
2022-11-02T00:15:19.822Z,15.90
2022-11-02T00:17:52.891Z,15.90
2022-11-02T00:20:20.761Z,15.90
2022-11-02T00:22:50.227Z,15.90
2022-11-02T00:25:21.629Z,15.90
2022-11-02T00:27:48.606Z,15.90
2022-11-02T00:30:15.919Z,15.90
2022-11-02T00:32:42.932Z,15.90
2022-11-02T00:35:10.358Z,15.80
2022-11-02T00:37:37.813Z,15.80
2022-11-02T00:40:06.011Z,15.80
2022-11-02T00:42:33.022Z,15.70
2022-11-02T00:45:00.064Z,15.70
2022-11-02T00:47:27.114Z,15.70
2022-11-02T00:49:54.581Z,15.60
2022-11-02T00:52:21.623Z,15.60
2022-11-02T00:54:51.030Z,15.70
2022-11-02T00:57:18.403Z,15.70
2022-11-02T00:59:45.876Z,15.60
2022-11-02T01:02:15.379Z,15.60
2022-11-02T01:04:42.452Z,15.60
2022-11-02T01:07:09.567Z,15.60
2022-11-02T01:09:36.850Z,15.60
2022-11-02T01:12:04.869Z,15.60
2022-11-02T01:14:31.876Z,15.60
2022-11-02T01:16:58.936Z,15.60
2022-11-02T01:19:26.346Z,15.60
2022-11-02T01:21:53.301Z,15.60
2022-11-02T01:24:20.198Z,15.50
2022-11-02T01:26:53.025Z,15.50
2022-11-02T01:29:20.038Z,15.40
2022-11-02T01:31:47.076Z,15.40
2022-11-02T01:34:14.371Z,15.40
2022-11-02T01:36:41.574Z,15.30
2022-11-02T01:39:08.568Z,15.40
2022-11-02T01:41:35.629Z,15.30
2022-11-02T01:44:04.159Z,15.30
2022-11-02T01:46:36.544Z,15.30
2022-11-02T01:49:11.901Z,15.40
2022-11-02T01:51:45.384Z,15.40
2022-11-02T01:54:18.736Z,15.40
2022-11-02T01:56:50.467Z,15.40
2022-11-02T01:59:23.599Z,15.40
2022-11-02T02:01:50.747Z,15.40
2022-11-02T02:04:17.880Z,15.40
2022-11-02T02:06:45.255Z,15.40
2022-11-02T02:09:14.722Z,15.40
2022-11-02T02:11:42.048Z,15.50
2022-11-02T02:14:15.506Z,15.50
2022-11-02T02:16:58.140Z,15.50
2022-11-02T02:19:25.077Z,15.50
2022-11-02T02:22:00.165Z,15.50
2022-11-02T02:24:50.361Z,15.40
2022-11-02T02:27:39.073Z,15.40
2022-11-02T02:30:10.040Z,15.40
2022-11-02T02:32:37.707Z,15.40
2022-11-02T02:35:28.087Z,15.30
2022-11-02T02:38:05.259Z,15.20
2022-11-02T02:40:39.381Z,15.20
2022-11-02T02:43:32.695Z,15.20
2022-11-02T02:46:23.215Z,15.20
2022-11-02T02:48:53.100Z,15.20
2022-11-02T02:51:26.640Z,15.20
2022-11-02T02:54:01.765Z,15.20
2022-11-02T02:56:35.430Z,15.30
2022-11-02T02:59:08.695Z,15.20
2022-11-02T03:01:40.103Z,15.10
2022-11-02T03:04:12.129Z,15.10
2022-11-02T03:06:40.052Z,15.00
2022-11-02T03:09:27.366Z,15.00
2022-11-02T03:12:04.340Z,15.00
2022-11-02T03:14:38.537Z,15.00
2022-11-02T03:17:11.528Z,15.00
2022-11-02T03:19:43.198Z,14.90
2022-11-02T03:22:23.043Z,14.90
2022-11-02T03:25:08.027Z,14.80
2022-11-02T03:27:55.473Z,14.90
2022-11-02T03:30:26.696Z,14.90
2022-11-02T03:32:56.872Z,14.90
2022-11-02T03:35:35.776Z,14.90
2022-11-02T03:38:13.832Z,14.90
2022-11-02T03:40:47.532Z,14.90
2022-11-02T03:43:17.076Z,14.90
2022-11-02T03:45:50.688Z,14.90
2022-11-02T03:48:19.159Z,14.90
2022-11-02T03:50:50.124Z,14.90
2022-11-02T03:53:43.264Z,14.90
2022-11-02T03:56:20.079Z,14.80
2022-11-02T03:58:47.130Z,14.90
2022-11-02T04:01:16.815Z,14.80
2022-11-02T04:03:46.285Z,14.80
2022-11-02T04:06:14.124Z,14.80
2022-11-02T04:08:44.817Z,14.80
2022-11-02T04:11:30.792Z,14.70
2022-11-02T04:14:22.836Z,14.70
2022-11-02T04:17:11.061Z,14.70
2022-11-02T04:19:39.322Z,14.70
2022-11-02T04:22:26.735Z,14.70
2022-11-02T04:25:20.847Z,14.70
2022-11-02T04:28:14.463Z,14.80
2022-11-02T04:31:01.273Z,14.80
2022-11-02T04:33:33.439Z,14.80
2022-11-02T04:36:09.941Z,14.90
2022-11-02T04:38:41.681Z,14.90
2022-11-02T04:41:41.653Z,15.00
2022-11-02T04:44:17.814Z,15.00
2022-11-02T04:46:52.016Z,15.00
2022-11-02T04:49:20.009Z,15.00
2022-11-02T04:51:49.912Z,15.00
2022-11-02T04:54:19.181Z,15.00
2022-11-02T04:56:50.314Z,15.00
2022-11-02T04:59:19.364Z,15.10
2022-11-02T05:01:46.477Z,15.10
2022-11-02T05:04:15.622Z,15.10
2022-11-02T05:06:42.545Z,15.10
2022-11-02T05:09:10.568Z,15.10
2022-11-02T05:11:41.734Z,15.10
2022-11-02T05:14:08.815Z,15.10
2022-11-02T05:16:36.169Z,15.10
2022-11-02T05:19:05.680Z,15.10
2022-11-02T05:21:35.504Z,15.10
2022-11-02T05:24:03.600Z,15.10
2022-11-02T05:26:30.775Z,15.10
2022-11-02T05:28:58.159Z,15.10
2022-11-02T05:31:25.162Z,15.10
2022-11-02T05:33:52.673Z,15.00
2022-11-02T05:36:21.923Z,15.10
2022-11-02T05:38:55.390Z,15.00
2022-11-02T05:41:23.799Z,15.00
2022-11-02T05:43:53.652Z,15.00
2022-11-02T05:46:22.407Z,15.00
2022-11-02T05:48:49.291Z,15.00
2022-11-02T05:51:16.248Z,14.90
2022-11-02T05:53:43.233Z,14.90
2022-11-02T05:56:11.522Z,14.90
2022-11-02T05:58:38.481Z,14.90
2022-11-02T06:01:07.316Z,14.90
2022-11-02T06:03:34.767Z,14.80
2022-11-02T06:06:05.225Z,14.80
2022-11-02T06:08:33.789Z,14.80
2022-11-02T06:11:10.062Z,14.70
2022-11-02T06:13:37.438Z,14.70
2022-11-02T06:16:06.438Z,14.70
2022-11-02T06:18:33.876Z,14.70
2022-11-02T06:21:01.222Z,14.60
2022-11-02T06:23:29.049Z,14.60
2022-11-02T06:25:58.104Z,14.60
2022-11-02T06:28:25.703Z,14.60
2022-11-02T06:30:53.004Z,14.50
2022-11-02T06:33:21.115Z,14.60
2022-11-02T06:35:52.872Z,14.50
2022-11-02T06:38:20.369Z,14.40
2022-11-02T06:40:54.727Z,14.40
2022-11-02T06:43:21.827Z,14.30
2022-11-02T06:45:48.953Z,14.30
2022-11-02T06:48:16.139Z,14.20
2022-11-02T06:50:43.202Z,14.10
2022-11-02T06:53:10.187Z,14.10
2022-11-02T06:55:37.190Z,14.10
2022-11-02T06:58:04.358Z,14.10
2022-11-02T07:00:31.758Z,14.10
2022-11-02T07:03:03.994Z,14.10
2022-11-02T07:05:31.851Z,14.10
2022-11-02T07:07:59.022Z,14.00
2022-11-02T07:10:26.823Z,14.00
2022-11-02T07:12:55.041Z,14.00
2022-11-02T07:15:23.365Z,14.00
2022-11-02T07:17:50.345Z,13.90
2022-11-02T07:20:17.999Z,13.90
2022-11-02T07:22:55.021Z,13.80
2022-11-02T07:25:22.437Z,13.80
2022-11-02T07:27:49.350Z,13.80
2022-11-02T07:30:16.415Z,13.90
2022-11-02T07:32:45.005Z,13.90
2022-11-02T07:35:13.728Z,13.90
2022-11-02T07:37:41.024Z,14.00
2022-11-02T07:40:10.366Z,14.00
2022-11-02T07:42:44.108Z,14.00
2022-11-02T07:45:11.807Z,14.00
2022-11-02T07:47:45.601Z,14.10
2022-11-02T07:50:14.092Z,14.10
2022-11-02T07:52:49.009Z,14.10
2022-11-02T07:55:17.729Z,14.10
2022-11-02T07:57:59.519Z,14.10
2022-11-02T08:00:28.525Z,14.10
2022-11-02T08:02:57.068Z,14.10
2022-11-02T08:05:25.029Z,14.20
2022-11-02T08:07:58.570Z,14.20
2022-11-02T08:10:25.856Z,14.20
2022-11-02T08:12:52.978Z,14.20
2022-11-02T08:15:19.963Z,14.10
2022-11-02T08:17:47.003Z,14.10
2022-11-02T08:20:14.666Z,14.20
2022-11-02T08:22:41.752Z,14.20
2022-11-02T08:25:08.976Z,14.20
2022-11-02T08:27:36.046Z,14.20
2022-11-02T08:30:03.526Z,14.10
2022-11-02T08:32:30.638Z,14.20
2022-11-02T08:34:57.521Z,14.20
2022-11-02T08:37:24.420Z,14.30
2022-11-02T08:39:51.328Z,14.20
2022-11-02T08:42:18.822Z,14.20
2022-11-02T08:44:45.695Z,14.20
2022-11-02T08:47:12.633Z,14.30
2022-11-02T08:49:39.531Z,14.30
2022-11-02T08:52:06.553Z,14.30
2022-11-02T08:54:33.646Z,14.20
2022-11-02T08:57:00.624Z,14.20
2022-11-02T08:59:27.547Z,14.20
2022-11-02T09:01:54.646Z,14.20
2022-11-02T09:04:22.040Z,14.30
2022-11-02T09:06:48.955Z,14.30
2022-11-02T09:09:15.915Z,14.30
2022-11-02T09:11:42.820Z,14.40
2022-11-02T09:14:09.812Z,14.50
2022-11-02T09:16:41.220Z,14.50
2022-11-02T09:19:08.793Z,14.50
2022-11-02T09:21:35.833Z,14.50
2022-11-02T09:24:02.858Z,14.50
2022-11-02T09:26:29.789Z,14.50
2022-11-02T09:28:56.664Z,14.60
2022-11-02T09:31:23.671Z,14.60
2022-11-02T09:33:50.611Z,14.60
2022-11-02T09:36:17.570Z,14.60
2022-11-02T09:38:44.565Z,14.70
2022-11-02T09:41:36.225Z,14.80
2022-11-02T09:44:09.672Z,14.80
2022-11-02T09:46:40.594Z,14.90
2022-11-02T09:49:15.571Z,14.90
2022-11-02T09:51:50.421Z,15.00
2022-11-02T09:54:40.534Z,15.00
2022-11-02T09:57:21.501Z,15.10
2022-11-02T09:59:49.527Z,15.10
2022-11-02T10:02:43.678Z,15.10
2022-11-02T10:05:20.639Z,15.10
2022-11-02T10:08:24.916Z,15.20
2022-11-02T10:11:11.957Z,15.30
2022-11-02T10:14:10.829Z,15.30
2022-11-02T10:16:52.839Z,15.40
2022-11-02T10:19:23.853Z,15.50
2022-11-02T10:21:57.544Z,15.60
2022-11-02T10:24:30.197Z,15.60
2022-11-02T10:27:00.960Z,15.70
2022-11-02T10:29:54.606Z,15.80
2022-11-02T10:32:21.937Z,15.80
2022-11-02T10:34:58.847Z,15.90
2022-11-02T10:37:53.212Z,16.00
2022-11-02T10:40:29.775Z,16.10
2022-11-02T10:43:31.998Z,16.10
2022-11-02T10:46:12.346Z,16.20
2022-11-02T10:49:12.748Z,16.20
2022-11-02T10:51:39.896Z,16.30
2022-11-02T10:54:13.675Z,16.40
2022-11-02T10:56:41.892Z,16.40
2022-11-02T10:59:20.218Z,16.50
2022-11-02T11:01:56.551Z,16.50
2022-11-02T11:04:26.670Z,16.60
2022-11-02T11:06:55.158Z,16.60
2022-11-02T11:09:26.463Z,16.70
2022-11-02T11:12:13.652Z,16.70
2022-11-02T11:20:39.161Z,16.80
2022-11-02T11:23:09.739Z,16.90
2022-11-02T11:25:36.769Z,16.90
2022-11-02T11:28:28.923Z,16.90
2022-11-02T11:31:13.260Z,17.00
2022-11-02T11:33:47.253Z,17.00
2022-11-02T11:36:33.071Z,17.00
2022-11-02T11:39:07.909Z,17.10
2022-11-02T11:41:40.271Z,17.10
2022-11-02T11:44:13.423Z,17.10
2022-11-02T11:46:53.571Z,17.10
2022-11-02T11:49:41.968Z,17.20
2022-11-02T11:52:25.638Z,17.20
2022-11-02T11:55:02.273Z,17.30
2022-11-02T11:57:34.508Z,17.30
2022-11-02T12:00:05.107Z,17.30
2022-11-02T12:02:40.896Z,17.40
2022-11-02T12:05:18.354Z,17.40
2022-11-02T12:08:22.387Z,17.40
2022-11-02T12:11:17.789Z,17.40
2022-11-02T12:13:45.690Z,17.40
2022-11-02T12:16:31.388Z,17.40
2022-11-02T12:19:17.065Z,17.50
2022-11-02T12:22:14.534Z,17.50
2022-11-02T12:25:12.257Z,17.50
2022-11-02T12:28:13.376Z,17.60
2022-11-02T12:31:13.532Z,17.60
2022-11-02T12:33:49.591Z,17.60
2022-11-02T12:36:35.127Z,17.60
2022-11-02T12:39:08.859Z,17.60
2022-11-02T12:42:13.148Z,17.70
2022-11-02T12:44:55.098Z,17.60
2022-11-02T12:47:40.057Z,17.70
2022-11-02T12:50:21.188Z,17.70
2022-11-02T12:53:08.239Z,17.70
2022-11-02T12:55:42.141Z,17.80
2022-11-02T12:58:17.716Z,17.80
2022-11-02T13:00:45.323Z,17.90
2022-11-02T13:03:40.091Z,17.90
2022-11-02T13:06:13.936Z,18.00
2022-11-02T13:09:10.603Z,18.00
2022-11-02T13:11:48.744Z,18.00
2022-11-02T13:14:20.147Z,18.00
2022-11-02T13:16:54.529Z,18.00
2022-11-02T13:19:31.662Z,18.10
2022-11-02T13:21:59.466Z,18.10
2022-11-02T13:24:42.309Z,18.10
2022-11-02T13:27:40.485Z,18.20
2022-11-02T13:30:16.249Z,18.20
2022-11-02T13:32:54.639Z,18.20
2022-11-02T13:35:43.305Z,18.20
2022-11-02T13:38:23.706Z,18.20
2022-11-02T13:40:58.347Z,18.20
2022-11-02T13:43:40.388Z,18.20
2022-11-02T13:46:25.459Z,18.20
2022-11-02T13:48:59.204Z,18.20
2022-11-02T13:51:45.081Z,18.20
2022-11-02T13:54:20.212Z,18.20
2022-11-02T13:56:51.723Z,18.30
2022-11-02T13:59:26.999Z,18.30
2022-11-02T14:01:55.540Z,18.40
2022-11-02T14:04:24.385Z,18.60
2022-11-02T14:06:59.991Z,18.70
2022-11-02T14:09:34.860Z,18.70
2022-11-02T14:12:10.658Z,18.90
2022-11-02T14:14:37.576Z,19.00
2022-11-02T14:17:13.226Z,19.10
2022-11-02T14:19:53.061Z,19.20
2022-11-02T14:22:20.850Z,19.20
2022-11-02T14:24:50.848Z,19.10
2022-11-02T14:27:19.195Z,19.10
2022-11-02T14:29:46.236Z,19.00
2022-11-02T14:32:23.865Z,19.00
2022-11-02T14:35:28.413Z,18.90
2022-11-02T14:38:26.511Z,18.90
2022-11-02T14:41:22.335Z,19.00
2022-11-02T14:44:00.945Z,19.10
2022-11-02T14:46:34.021Z,19.10
2022-11-02T14:49:04.366Z,19.00
2022-11-02T14:51:34.284Z,18.90
2022-11-02T14:54:20.180Z,18.90
2022-11-02T14:57:01.497Z,18.80
2022-11-02T14:59:33.625Z,18.80
2022-11-02T15:02:42.004Z,18.70
2022-11-02T15:05:20.516Z,18.70
2022-11-02T15:07:50.217Z,18.70
2022-11-02T15:10:17.176Z,18.60
2022-11-02T15:12:46.018Z,18.60
2022-11-02T15:15:30.639Z,18.60
2022-11-02T15:17:57.504Z,18.50
2022-11-02T15:20:28.228Z,18.50
2022-11-02T15:22:58.692Z,18.50
2022-11-02T15:25:31.394Z,18.40
2022-11-02T15:28:06.825Z,18.40
2022-11-02T15:30:42.495Z,18.40
2022-11-02T15:33:19.381Z,18.30
2022-11-02T15:35:48.109Z,18.30
2022-11-02T15:38:17.934Z,18.30
2022-11-02T15:40:58.106Z,18.20
2022-11-02T15:43:57.906Z,18.20
2022-11-02T15:46:40.467Z,18.20
2022-11-02T15:49:14.834Z,18.20
2022-11-02T15:51:50.594Z,18.10
2022-11-02T15:54:27.212Z,18.10
2022-11-02T15:57:15.572Z,18.10
2022-11-02T16:00:16.096Z,18.10
2022-11-02T16:02:52.477Z,18.10
2022-11-02T16:05:23.543Z,18.10
2022-11-02T16:10:40.569Z,18.00
2022-11-02T16:13:10.595Z,18.00
2022-11-02T16:15:42.238Z,18.00
2022-11-02T16:18:42.604Z,18.00
2022-11-02T16:21:15.214Z,17.90
2022-11-02T16:23:47.452Z,17.90
2022-11-02T16:26:22.214Z,17.90
2022-11-02T16:28:58.561Z,17.90
2022-11-02T16:31:31.056Z,17.80
2022-11-02T16:34:00.634Z,17.80
2022-11-02T16:36:35.709Z,17.80
2022-11-02T16:39:16.453Z,17.80
2022-11-02T16:41:52.429Z,17.80
2022-11-02T16:44:29.996Z,17.80
2022-11-02T16:47:00.324Z,17.80
2022-11-02T16:49:28.579Z,17.80
2022-11-02T16:52:00.699Z,17.80
2022-11-02T16:54:33.848Z,17.80
2022-11-02T16:57:15.885Z,17.70
2022-11-02T17:00:06.302Z,17.70
2022-11-02T17:02:36.240Z,17.70
2022-11-02T17:05:06.763Z,17.70
2022-11-02T17:07:41.593Z,17.70
2022-11-02T17:10:17.964Z,17.70
2022-11-02T17:12:45.864Z,17.70
2022-11-02T17:15:19.317Z,17.70
2022-11-02T17:17:47.005Z,17.70
2022-11-02T17:20:17.015Z,17.70
2022-11-02T17:23:05.112Z,17.70
2022-11-02T17:25:37.628Z,17.70
2022-11-02T17:28:41.968Z,17.70
2022-11-02T17:31:23.885Z,17.70
2022-11-02T17:33:51.988Z,17.60
2022-11-02T17:36:19.208Z,17.60
2022-11-02T17:38:46.630Z,17.60
2022-11-02T17:41:35.666Z,17.60
2022-11-02T17:44:03.387Z,17.60
2022-11-02T17:46:30.354Z,17.60
2022-11-02T17:48:57.740Z,17.60
2022-11-02T17:51:25.965Z,17.60
2022-11-02T17:53:52.898Z,17.60
2022-11-02T17:56:19.948Z,17.60
2022-11-02T17:58:46.916Z,17.60
2022-11-02T18:01:14.369Z,17.60
2022-11-02T18:03:41.561Z,17.60
2022-11-02T18:06:08.600Z,17.60
2022-11-02T18:08:55.562Z,17.60
2022-11-02T18:11:26.242Z,17.60
2022-11-02T18:13:53.910Z,17.60
2022-11-02T18:16:20.930Z,17.60
2022-11-02T18:18:47.998Z,17.60
2022-11-02T18:21:14.936Z,17.50
2022-11-02T18:23:41.925Z,17.50
2022-11-02T18:26:12.625Z,17.50
2022-11-02T18:28:39.955Z,17.50
2022-11-02T18:31:07.695Z,17.50
2022-11-02T18:33:34.981Z,17.50
2022-11-02T18:36:07.371Z,17.50
2022-11-02T18:38:34.600Z,17.50
2022-11-02T18:41:27.620Z,17.40
2022-11-02T18:44:02.124Z,17.40
2022-11-02T18:46:32.151Z,17.40
2022-11-02T18:48:59.847Z,17.40
2022-11-02T18:51:27.125Z,17.40
2022-11-02T18:54:00.680Z,17.40
2022-11-02T18:56:27.938Z,17.40
2022-11-02T18:58:55.547Z,17.40
2022-11-02T19:01:24.155Z,17.40
2022-11-02T19:04:00.545Z,17.40
2022-11-02T19:06:49.707Z,17.40
2022-11-02T19:09:18.168Z,17.30
2022-11-02T19:12:01.321Z,17.30
2022-11-02T19:14:30.778Z,17.30
2022-11-02T19:16:57.894Z,17.30
2022-11-02T19:19:24.994Z,17.30
2022-11-02T19:21:51.953Z,17.30
2022-11-02T19:24:21.051Z,17.30
2022-11-02T19:26:48.295Z,17.30
2022-11-02T19:29:16.743Z,17.30
2022-11-02T19:31:44.032Z,17.30
2022-11-02T19:34:11.250Z,17.30
2022-11-02T19:36:38.665Z,17.30
2022-11-02T19:39:08.552Z,17.30
2022-11-02T19:41:37.945Z,17.30
2022-11-02T19:44:05.717Z,17.30
2022-11-02T19:46:33.664Z,17.30
2022-11-02T19:49:00.669Z,17.30
2022-11-02T19:51:29.738Z,17.30
2022-11-02T19:53:58.905Z,17.30
2022-11-02T19:56:27.650Z,17.30
2022-11-02T19:58:55.361Z,17.30
2022-11-02T20:01:28.825Z,17.30
2022-11-02T20:03:56.780Z,17.30
2022-11-02T20:06:38.637Z,17.20
2022-11-02T20:09:08.276Z,17.20
2022-11-02T20:11:36.243Z,17.20
2022-11-02T20:14:05.325Z,17.20
2022-11-02T20:16:32.751Z,17.20
2022-11-02T20:19:00.010Z,17.20
2022-11-02T20:21:35.639Z,17.20
2022-11-02T20:24:07.913Z,17.20
2022-11-02T20:26:36.501Z,17.20
2022-11-02T20:29:05.201Z,17.20
2022-11-02T20:31:35.818Z,17.20
2022-11-02T20:34:05.411Z,17.20
2022-11-02T20:36:33.943Z,17.20
2022-11-02T20:39:03.265Z,17.20
2022-11-02T20:41:31.163Z,17.20
2022-11-02T20:43:59.217Z,17.20
2022-11-02T20:46:38.306Z,17.20
2022-11-02T20:49:20.823Z,17.20
2022-11-02T20:51:57.882Z,17.20
2022-11-02T20:54:27.507Z,17.20
2022-11-02T20:56:55.704Z,17.20
2022-11-02T20:59:23.921Z,17.20
2022-11-02T21:01:55.434Z,17.30
2022-11-02T21:04:23.836Z,17.20
2022-11-02T21:06:53.736Z,17.20
2022-11-02T21:09:21.681Z,17.20
2022-11-02T21:12:09.762Z,17.20
2022-11-02T21:14:38.164Z,17.20
2022-11-02T21:17:07.513Z,17.30
2022-11-02T21:19:35.243Z,17.20
2022-11-02T21:22:03.149Z,17.30
2022-11-02T21:24:31.420Z,17.20
2022-11-02T21:26:59.660Z,17.30
2022-11-02T21:29:27.375Z,17.20
2022-11-02T21:31:54.636Z,17.20
2022-11-02T21:34:21.646Z,17.20
2022-11-02T21:36:48.969Z,17.20
2022-11-02T21:39:16.293Z,17.20
2022-11-02T21:41:43.544Z,17.20
2022-11-02T21:44:11.698Z,17.20
2022-11-02T21:46:38.700Z,17.20
2022-11-02T21:49:05.928Z,17.20
2022-11-02T21:51:34.412Z,17.20
2022-11-02T21:54:01.316Z,17.20
2022-11-02T21:56:30.625Z,17.20
2022-11-02T21:58:57.708Z,17.20
2022-11-02T22:01:46.819Z,17.20
2022-11-02T22:04:25.648Z,17.20
2022-11-02T22:06:53.014Z,17.20
2022-11-02T22:09:20.358Z,17.20
2022-11-02T22:11:47.793Z,17.20
2022-11-02T22:14:14.982Z,17.20
2022-11-02T22:16:43.395Z,17.20
2022-11-02T22:19:12.332Z,17.20
2022-11-02T22:21:44.349Z,17.20
2022-11-02T22:24:11.834Z,17.20
2022-11-02T22:26:39.655Z,17.20
2022-11-02T22:29:07.916Z,17.20
2022-11-02T22:31:38.573Z,17.20
2022-11-02T22:34:07.968Z,17.20
2022-11-02T22:36:36.019Z,17.20
2022-11-02T22:39:05.793Z,17.20
2022-11-02T22:41:38.853Z,17.20
2022-11-02T22:44:11.440Z,17.20
2022-11-02T22:46:40.514Z,17.20
2022-11-02T22:49:09.292Z,17.20
2022-11-02T22:51:42.196Z,17.20
2022-11-02T22:54:11.766Z,17.20
2022-11-02T22:56:39.079Z,17.20
2022-11-02T22:59:06.067Z,17.10
2022-11-02T23:01:34.259Z,17.10
2022-11-02T23:04:01.950Z,17.10
2022-11-02T23:06:29.576Z,17.10
2022-11-02T23:08:58.219Z,17.20
2022-11-02T23:11:35.956Z,17.10
2022-11-02T23:14:04.607Z,17.20
2022-11-02T23:16:47.063Z,17.10
2022-11-02T23:19:30.981Z,17.10
2022-11-02T23:22:30.489Z,17.10
2022-11-02T23:25:12.464Z,17.10
2022-11-02T23:28:06.882Z,17.10
2022-11-02T23:30:54.710Z,17.10
2022-11-02T23:33:23.148Z,17.10
2022-11-02T23:36:09.140Z,17.10
2022-11-02T23:38:54.850Z,17.10
2022-11-02T23:41:22.045Z,17.10
2022-11-02T23:43:49.398Z,17.10
2022-11-02T23:46:17.704Z,17.10
2022-11-02T23:48:48.231Z,17.10
2022-11-02T23:51:36.859Z,17.10
2022-11-02T23:54:22.258Z,17.10
2022-11-02T23:56:50.098Z,17.10
2022-11-02T23:59:18.149Z,17.10
